Time;durP1;ratioP1;P1;durP2;ratioP2;P2;SDS_P1;SDS_P2;PMS_P1;PMS_P2;Temp;Humidity;BMP_temperature;BMP_pressure;BME280_temperature;BME280_humidity;BME280_pressure;Samples;Min_cycle;Max_cycle;Signal;HPM_P1;HPM_P2
2023/04/08 00:01:14;;;;;;;7.45;6.75;;;22.20;64.90;;;;;;6306412;27;88287;-70
2023/04/08 00:04:17;;;;;;;7.57;6.80;;;22.20;65.00;;;;;;6293141;27;89202;-70
2023/04/08 00:07:20;;;;;;;7.60;6.90;;;22.30;65.20;;;;;;6298314;27;88310;-70
2023/04/08 00:10:23;;;;;;;8.20;7.40;;;22.20;65.20;;;;;;6303600;27;90455;-70
2023/04/08 00:13:26;;;;;;;8.35;6.80;;;22.20;65.20;;;;;;6302283;27;88706;-70
2023/04/08 00:16:28;;;;;;;7.60;6.90;;;22.20;65.40;;;;;;6306002;27;89806;-70
2023/04/08 00:19:30;;;;;;;8.98;7.82;;;22.20;65.50;;;;;;6303286;27;88136;-70
2023/04/08 00:22:33;;;;;;;7.90;7.10;;;22.20;65.50;;;;;;6304609;27;91583;-70
2023/04/08 00:25:35;;;;;;;8.00;7.20;;;22.20;65.50;;;;;;6305279;27;89126;-70
2023/04/08 00:28:37;;;;;;;7.93;7.18;;;22.20;65.50;;;;;;6290392;27;88896;-69
2023/04/08 00:31:39;;;;;;;8.52;7.30;;;22.20;65.50;;;;;;6305902;27;88340;-70
2023/04/08 00:34:42;;;;;;;8.27;7.47;;;22.20;65.60;;;;;;6296911;27;89242;-70
2023/04/08 00:37:46;;;;;;;8.70;7.80;;;22.20;65.60;;;;;;6292344;27;89201;-67
2023/04/08 00:40:48;;;;;;;8.50;7.70;;;22.20;65.60;;;;;;6305384;27;89991;-67
2023/04/08 00:43:51;;;;;;;8.07;7.28;;;22.20;65.70;;;;;;6299157;27;89032;-70
2023/04/08 00:46:54;;;;;;;7.97;7.18;;;22.10;65.70;;;;;;6299409;27;89046;-70
2023/04/08 00:49:56;;;;;;;8.38;7.57;;;22.10;65.60;;;;;;6298937;27;90623;-70
2023/04/08 00:52:59;;;;;;;7.93;7.13;;;22.10;65.70;;;;;;6298911;27;89165;-70
2023/04/08 00:56:01;;;;;;;7.72;7.03;;;22.10;65.70;;;;;;6286527;27;89096;-70
2023/04/08 00:59:04;;;;;;;7.78;7.07;;;22.10;65.70;;;;;;6300831;27;89288;-70
2023/04/08 01:02:14;;;;;;;7.88;7.07;;;22.10;65.80;;;;;;6306121;27;88286;-70
2023/04/08 01:05:23;;;;;;;7.53;6.70;;;22.10;65.80;;;;;;6282202;27;89141;-70
2023/04/08 01:08:30;;;;;;;7.70;7.00;;;22.10;65.90;;;;;;6312878;27;89075;-70
2023/04/08 01:11:34;;;;;;;7.80;7.10;;;22.10;65.80;;;;;;6306702;27;89994;-70
2023/04/08 01:14:42;;;;;;;8.43;7.63;;;22.10;65.90;;;;;;6300404;27;89144;-70
2023/04/08 01:17:45;;;;;;;7.95;7.15;;;22.10;65.90;;;;;;6309333;27;89075;-70
2023/04/08 01:20:49;;;;;;;8.00;7.20;;;22.10;65.90;;;;;;6299475;27;89383;-70
2023/04/08 01:24:01;;;;;;;8.00;7.20;;;22.10;65.90;;;;;;6306725;27;89488;-69
2023/04/08 01:27:05;;;;;;;8.18;7.38;;;22.10;65.90;;;;;;6298267;27;88789;-70
2023/04/08 01:30:09;;;;;;;7.63;6.93;;;22.10;65.90;;;;;;6296362;27;87862;-70
2023/04/08 01:33:13;;;;;;;7.68;6.85;;;22.00;65.80;;;;;;6309982;27;88415;-70
2023/04/08 01:36:16;;;;;;;7.63;6.88;;;22.00;65.80;;;;;;6300157;27;89163;-70
2023/04/08 01:39:20;;;;;;;7.22;6.53;;;22.00;65.80;;;;;;6298694;27;89386;-70
2023/04/08 01:42:25;;;;;;;8.05;6.97;;;22.00;65.80;;;;;;6301961;27;89935;-70
2023/04/08 01:45:28;;;;;;;7.30;6.60;;;22.10;65.90;;;;;;6308555;27;89045;-70
2023/04/08 01:48:31;;;;;;;7.80;7.00;;;22.10;65.90;;;;;;6307526;27;89091;-71
2023/04/08 01:51:34;;;;;;;7.93;7.03;;;22.10;65.90;;;;;;6305685;27;88976;-71
2023/04/08 01:54:36;;;;;;;7.53;6.72;;;22.10;65.80;;;;;;6296313;27;89267;-70
2023/04/08 01:57:41;;;;;;;7.35;6.30;;;22.00;64.70;;;;;;6315932;27;88294;-70
2023/04/08 02:00:44;;;;;;;6.95;6.25;;;22.00;64.20;;;;;;6295548;27;89121;-69
2023/04/08 02:03:47;;;;;;;6.80;6.13;;;21.90;64.50;;;;;;6299971;27;88368;-70
2023/04/08 02:06:50;;;;;;;6.60;6.00;;;22.00;64.90;;;;;;6294309;27;89087;-70
2023/04/08 02:09:52;;;;;;;6.43;5.82;;;22.00;65.00;;;;;;6301867;27;89157;-70
2023/04/08 02:12:56;;;;;;;6.97;6.20;;;22.00;66.10;;;;;;6303589;27;89840;-71
2023/04/08 02:16:08;;;;;;;7.78;6.40;;;22.00;65.20;;;;;;6298503;27;89136;-70
2023/04/08 02:19:15;;;;;;;7.45;6.45;;;22.00;65.30;;;;;;6302378;27;89036;-70
2023/04/08 02:22:24;;;;;;;6.40;5.80;;;22.00;65.40;;;;;;6302913;27;88903;-70
2023/04/08 02:25:27;;;;;;;6.40;5.80;;;22.00;65.40;;;;;;6304419;27;89023;-70
2023/04/08 02:28:33;;;;;;;5.85;5.35;;;22.00;65.40;;;;;;6304718;27;88279;-70
2023/04/08 02:31:35;;;;;;;6.28;5.68;;;21.90;65.40;;;;;;6306976;27;89181;-70
2023/04/08 02:34:40;;;;;;;6.55;5.93;;;21.90;65.40;;;;;;6296462;27;88310;-71
2023/04/08 02:37:42;;;;;;;6.30;5.70;;;21.90;65.50;;;;;;6293736;27;89065;-70
2023/04/08 02:40:44;;;;;;;6.78;6.05;;;21.90;65.50;;;;;;6297340;27;89063;-71
2023/04/08 02:43:48;;;;;;;6.13;5.53;;;21.90;65.60;;;;;;6306633;27;89977;-71
2023/04/08 02:46:50;;;;;;;6.30;5.70;;;21.90;65.70;;;;;;6291383;27;89064;-70
2023/04/08 02:49:54;;;;;;;5.93;5.35;;;21.90;65.70;;;;;;6308831;27;89393;-70
2023/04/08 02:52:56;;;;;;;6.05;5.30;;;21.90;65.70;;;;;;6308293;27;89425;-70
2023/04/08 02:55:58;;;;;;;6.22;5.63;;;21.90;65.70;;;;;;6294330;27;89152;-71
2023/04/08 02:59:01;;;;;;;6.40;5.53;;;21.90;65.70;;;;;;6313596;27;89116;-70
2023/04/08 03:02:03;;;;;;;6.07;5.47;;;21.90;65.70;;;;;;6301350;27;89029;-70
2023/04/08 03:05:06;;;;;;;6.05;5.45;;;21.90;65.70;;;;;;6283269;27;88334;-71
2023/04/08 03:08:08;;;;;;;5.72;5.20;;;21.90;65.70;;;;;;6286008;27;89066;-70
2023/04/08 03:11:10;;;;;;;6.10;5.30;;;21.90;65.70;;;;;;6303301;27;89061;-71
2023/04/08 03:14:13;;;;;;;6.63;5.60;;;21.90;65.70;;;;;;6300687;27;88983;-70
2023/04/08 03:17:15;;;;;;;5.78;5.15;;;21.90;65.70;;;;;;6305471;27;89518;-70
2023/04/08 03:20:17;;;;;;;5.35;4.85;;;21.90;65.70;;;;;;6283655;27;88784;-70
2023/04/08 03:23:19;;;;;;;5.20;4.70;;;21.90;65.80;;;;;;6295329;27;88056;-70
2023/04/08 03:26:21;;;;;;;5.57;5.07;;;21.90;65.80;;;;;;6298060;27;89062;-69
2023/04/08 03:29:25;;;;;;;5.10;4.70;;;21.80;65.70;;;;;;6306090;27;89061;-69
2023/04/08 03:32:27;;;;;;;5.97;5.30;;;21.90;65.80;;;;;;6305518;27;89249;-70
2023/04/08 03:35:29;;;;;;;5.55;5.03;;;21.90;65.90;;;;;;6295702;27;88536;-70
2023/04/08 03:38:31;;;;;;;5.30;4.80;;;21.90;65.80;;;;;;6306770;27;88248;-69
2023/04/08 03:41:33;;;;;;;5.28;4.78;;;21.90;65.70;;;;;;6303506;27;89277;-70
2023/04/08 03:44:36;;;;;;;5.35;4.85;;;21.90;65.70;;;;;;6288480;27;89943;-69
2023/04/08 03:47:38;;;;;;;5.63;5.13;;;21.90;65.70;;;;;;6301259;27;89089;-70
2023/04/08 03:50:40;;;;;;;5.57;4.60;;;21.90;65.70;;;;;;6293649;27;88970;-69
2023/04/08 03:53:42;;;;;;;4.50;4.10;;;21.90;65.70;;;;;;6291998;27;89135;-70
2023/04/08 03:56:44;;;;;;;5.43;4.50;;;21.90;65.70;;;;;;6284773;27;88419;-70
2023/04/08 03:59:47;;;;;;;6.50;4.60;;;21.90;66.60;;;;;;6285917;27;88993;-69
2023/04/08 04:02:49;;;;;;;5.18;4.68;;;21.90;65.60;;;;;;6296816;27;88993;-70
2023/04/08 04:05:51;;;;;;;5.22;4.00;;;22.00;65.60;;;;;;6293596;27;90425;-70
2023/04/08 04:08:54;;;;;;;4.88;4.38;;;22.00;65.60;;;;;;6300595;27;89150;-70
2023/04/08 04:11:56;;;;;;;4.72;4.07;;;22.00;65.60;;;;;;6289862;27;87942;-70
2023/04/08 04:14:59;;;;;;;5.18;4.68;;;22.00;65.50;;;;;;6286954;27;90362;-69
2023/04/08 04:18:01;;;;;;;4.50;4.10;;;22.00;65.50;;;;;;6288322;27;89087;-70
2023/04/08 04:21:06;;;;;;;4.35;3.80;;;22.10;65.50;;;;;;6289762;27;88991;-70
2023/04/08 04:24:08;;;;;;;5.25;4.40;;;22.10;65.50;;;;;;6280266;27;88808;-69
2023/04/08 04:27:10;;;;;;;4.63;4.22;;;22.10;65.50;;;;;;6295183;27;87973;-70
2023/04/08 04:30:14;;;;;;;4.63;4.22;;;22.10;65.50;;;;;;6281010;27;87929;-70
2023/04/08 04:33:16;;;;;;;4.60;4.18;;;22.10;65.50;;;;;;6280749;27;89080;-70
2023/04/08 04:36:18;;;;;;;4.20;3.80;;;22.10;65.50;;;;;;6287427;27;88293;-70
2023/04/08 04:39:20;;;;;;;4.25;3.85;;;22.10;65.50;;;;;;6304622;27;89056;-70
2023/04/08 04:42:22;;;;;;;5.35;4.45;;;22.10;65.50;;;;;;6296094;27;89003;-70
2023/04/08 04:45:26;;;;;;;4.30;3.90;;;22.10;65.50;;;;;;6286296;27;88936;-70
2023/04/08 04:48:28;;;;;;;4.75;4.35;;;22.10;65.60;;;;;;6296471;27;89364;-71
2023/04/08 04:51:31;;;;;;;4.57;4.18;;;22.00;65.50;;;;;;6280067;27;89354;-70
2023/04/08 04:54:33;;;;;;;4.35;3.95;;;22.00;65.50;;;;;;6292841;27;87919;-70
2023/04/08 04:57:35;;;;;;;4.43;3.97;;;22.00;65.50;;;;;;6297788;27;87944;-70
2023/04/08 05:00:54;;;;;;;4.18;3.83;;;22.10;65.50;;;;;;6287004;27;88066;-71
2023/04/08 05:04:00;;;;;;;4.05;3.65;;;22.00;65.40;;;;;;6290011;27;88139;-72
2023/04/08 05:07:03;;;;;;;4.13;3.72;;;22.00;65.50;;;;;;6286213;27;87993;-70
2023/04/08 05:10:06;;;;;;;4.13;3.72;;;22.10;65.50;;;;;;6282137;27;89242;-70
2023/04/08 05:13:08;;;;;;;3.80;3.50;;;22.00;65.50;;;;;;6294642;27;89172;-69
2023/04/08 05:16:11;;;;;;;3.90;3.50;;;22.00;65.50;;;;;;6281412;27;90169;-69
2023/04/08 05:19:13;;;;;;;4.30;3.90;;;22.00;65.50;;;;;;6281208;27;89088;-69
2023/04/08 05:22:15;;;;;;;4.55;4.10;;;22.00;65.60;;;;;;6280499;27;89057;-69
2023/04/08 05:25:17;;;;;;;4.53;3.58;;;22.00;65.70;;;;;;6303589;27;88994;-68
2023/04/08 05:28:19;;;;;;;4.15;3.75;;;22.00;65.70;;;;;;6283488;27;89032;-69
2023/04/08 05:31:23;;;;;;;3.75;3.45;;;21.90;65.70;;;;;;6293401;27;89218;-68
2023/04/08 05:34:25;;;;;;;3.67;3.38;;;21.90;65.70;;;;;;6280793;27;88984;-69
2023/04/08 05:37:27;;;;;;;3.72;3.42;;;21.90;65.70;;;;;;6296009;27;88359;-69
2023/04/08 05:40:29;;;;;;;4.53;3.85;;;21.90;65.70;;;;;;6289287;27;89001;-68
2023/04/08 05:43:33;;;;;;;3.90;3.53;;;22.00;65.80;;;;;;6301954;27;89081;-69
2023/04/08 05:46:37;;;;;;;3.83;3.53;;;21.90;65.70;;;;;;6300322;27;90435;-69
2023/04/08 05:49:39;;;;;;;3.80;3.50;;;22.00;65.80;;;;;;6281021;27;89741;-69
2023/04/08 05:52:43;;;;;;;4.00;3.60;;;22.00;65.80;;;;;;6287838;27;88046;-69
2023/04/08 05:55:45;;;;;;;3.75;3.45;;;21.90;65.70;;;;;;6291030;27;88884;-69
2023/04/08 05:58:48;;;;;;;3.60;3.30;;;22.00;65.80;;;;;;6301660;27;88043;-69
2023/04/08 06:01:51;;;;;;;3.30;3.03;;;22.00;65.80;;;;;;6308261;27;88894;-68
2023/04/08 06:04:53;;;;;;;3.55;3.25;;;21.90;65.70;;;;;;6284816;27;89332;-69
2023/04/08 06:07:55;;;;;;;3.38;3.08;;;22.00;65.80;;;;;;6285038;27;88320;-69
2023/04/08 06:10:57;;;;;;;3.58;3.28;;;22.00;65.70;;;;;;6294685;27;89248;-69
2023/04/08 06:13:59;;;;;;;4.20;3.80;;;22.00;65.70;;;;;;6301289;27;89136;-70
2023/04/08 06:17:03;;;;;;;4.18;3.35;;;22.00;65.40;;;;;;6298650;27;90107;-71
2023/04/08 06:20:08;;;;;;;5.30;4.80;;;22.00;65.40;;;;;;6305673;27;89136;-70
2023/04/08 06:23:10;;;;;;;5.78;4.00;;;22.10;67.10;;;;;;6298063;27;89181;-69
2023/04/08 06:26:12;;;;;;;4.32;3.90;;;22.10;66.70;;;;;;6284564;27;89257;-70
2023/04/08 06:29:14;;;;;;;4.10;3.70;;;22.20;66.00;;;;;;6284239;27;89201;-69
2023/04/08 06:32:17;;;;;;;4.07;3.45;;;22.30;66.90;;;;;;6284118;27;89410;-69
2023/04/08 06:35:19;;;;;;;3.67;3.38;;;22.20;65.90;;;;;;6283293;27;87949;-69
2023/04/08 06:38:21;;;;;;;3.97;3.60;;;22.30;66.00;;;;;;6297357;27;88519;-69
2023/04/08 06:41:23;;;;;;;3.75;3.40;;;22.30;66.10;;;;;;6302204;27;89179;-69
2023/04/08 06:44:25;;;;;;;3.90;3.42;;;22.30;66.00;;;;;;6305809;27;89062;-69
2023/04/08 06:47:29;;;;;;;3.80;3.40;;;22.40;66.10;;;;;;6297109;27;89995;-70
2023/04/08 06:50:31;;;;;;;4.03;3.47;;;22.40;66.10;;;;;;6295464;27;89074;-69
2023/04/08 06:53:32;;;;;;;3.90;3.50;;;22.40;66.10;;;;;;6296593;27;89438;-69
2023/04/08 06:56:34;;;;;;;3.40;3.10;;;22.40;66.10;;;;;;6297563;27;88993;-69
2023/04/08 06:59:37;;;;;;;4.22;3.83;;;22.40;66.10;;;;;;6292762;27;89610;-68
2023/04/08 07:02:40;;;;;;;3.90;3.50;;;22.40;66.10;;;;;;6301726;27;89436;-68
2023/04/08 07:05:42;;;;;;;4.13;3.72;;;22.40;66.20;;;;;;6296365;27;88988;-70
2023/04/08 07:08:44;;;;;;;3.65;3.22;;;22.40;66.20;;;;;;6287619;27;87332;-70
2023/04/08 07:11:46;;;;;;;5.28;3.50;;;22.40;66.20;;;;;;6294651;27;89140;-73
2023/04/08 07:14:48;;;;;;;3.50;3.20;;;22.50;67.20;;;;;;6293000;27;88997;-71
2023/04/08 07:17:51;;;;;;;3.60;3.30;;;22.50;66.70;;;;;;6298725;27;90047;-72
2023/04/08 07:20:54;;;;;;;3.58;3.28;;;22.50;66.40;;;;;;6294799;27;89039;-72
2023/04/08 07:23:56;;;;;;;4.15;3.75;;;22.50;66.40;;;;;;6289370;27;88891;-72
2023/04/08 07:26:58;;;;;;;4.40;4.00;;;22.50;66.10;;;;;;6294752;27;89021;-71
2023/04/08 07:30:00;;;;;;;4.72;4.25;;;22.50;65.50;;;;;;6284201;27;87916;-71
2023/04/08 07:33:04;;;;;;;7.82;6.47;;;22.50;65.00;;;;;;6282941;27;89255;-72
2023/04/08 07:36:06;;;;;;;7.00;6.25;;;22.40;63.00;;;;;;6290573;27;88055;-69
2023/04/08 07:39:08;;;;;;;6.90;4.82;;;22.40;61.40;;;;;;6292809;27;88595;-69
2023/04/08 07:42:10;;;;;;;6.38;4.65;;;22.40;61.60;;;;;;6297035;27;89018;-70
2023/04/08 07:45:12;;;;;;;7.50;4.75;;;22.40;62.30;;;;;;6293540;27;88046;-71
2023/04/08 07:48:16;;;;;;;4.70;4.25;;;22.30;62.70;;;;;;6302663;27;89944;-70
2023/04/08 07:51:18;;;;;;;4.72;4.25;;;22.40;63.00;;;;;;6307387;27;87951;-70
2023/04/08 07:54:20;;;;;;;5.82;4.30;;;22.40;63.20;;;;;;6295861;27;89073;-72
2023/04/08 07:57:22;;;;;;;4.85;3.95;;;22.40;63.30;;;;;;6292379;27;89486;-72
2023/04/08 08:00:24;;;;;;;5.10;4.18;;;22.40;63.50;;;;;;6295619;27;87855;-72
2023/04/08 08:03:27;;;;;;;4.00;3.63;;;22.40;63.60;;;;;;6281615;27;89093;-72
2023/04/08 08:06:31;;;;;;;4.25;3.85;;;22.40;63.70;;;;;;6288508;27;89013;-72
2023/04/08 08:09:33;;;;;;;4.18;3.40;;;22.40;63.80;;;;;;6288583;27;88384;-72
2023/04/08 08:12:35;;;;;;;5.20;3.65;;;22.40;63.80;;;;;;6294770;27;89234;-71
2023/04/08 08:15:36;;;;;;;5.18;3.40;;;22.40;63.80;;;;;;6297234;27;89034;-72
2023/04/08 08:18:40;;;;;;;4.38;3.50;;;22.40;64.00;;;;;;6305008;27;89995;-72
2023/04/08 08:21:42;;;;;;;4.32;3.55;;;22.40;64.00;;;;;;6296992;27;89336;-72
2023/04/08 08:24:44;;;;;;;4.30;3.70;;;22.40;64.00;;;;;;6291694;27;88973;-72
2023/04/08 08:27:47;;;;;;;3.85;3.45;;;22.50;64.20;;;;;;6288288;27;89165;-72
2023/04/08 08:30:49;;;;;;;3.85;3.55;;;22.40;64.10;;;;;;6281753;27;87945;-72
2023/04/08 08:33:53;;;;;;;6.53;3.55;;;22.50;64.20;;;;;;6281133;27;88996;-72
2023/04/08 08:36:57;;;;;;;4.78;3.25;;;22.40;64.20;;;;;;6280297;27;89495;-72
2023/04/08 08:39:59;;;;;;;4.35;3.42;;;22.50;64.30;;;;;;6293670;27;87188;-72
2023/04/08 08:43:01;;;;;;;3.60;3.30;;;22.50;64.30;;;;;;6288668;27;89704;-71
2023/04/08 08:46:03;;;;;;;3.58;3.25;;;22.50;64.40;;;;;;6286365;27;89047;-72
2023/04/08 08:49:06;;;;;;;3.60;3.30;;;22.50;64.40;;;;;;6289967;27;90490;-72
2023/04/08 08:52:09;;;;;;;3.42;3.08;;;22.50;64.50;;;;;;6293495;27;89045;-72
2023/04/08 08:55:11;;;;;;;4.18;3.33;;;22.50;64.40;;;;;;6281430;27;89126;-72
2023/04/08 08:58:13;;;;;;;3.50;3.20;;;22.50;64.50;;;;;;6288670;27;89074;-72
2023/04/08 09:01:36;;;;;;;3.72;3.33;;;22.50;64.50;;;;;;6294469;27;88990;-72
2023/04/08 09:04:40;;;;;;;3.92;3.28;;;22.50;64.50;;;;;;6286524;27;89016;-73
2023/04/08 09:07:42;;;;;;;3.45;3.05;;;22.50;64.50;;;;;;6292870;27;89055;-72
2023/04/08 09:10:44;;;;;;;3.65;3.35;;;22.50;64.60;;;;;;6286910;27;88308;-71
2023/04/08 09:13:47;;;;;;;3.30;3.00;;;22.50;64.60;;;;;;6288587;27;89027;-72
2023/04/08 09:16:49;;;;;;;3.67;3.35;;;22.50;65.50;;;;;;6296500;27;88120;-71
2023/04/08 09:20:11;;;;;;;3.40;3.10;;;22.50;64.50;;;;;;6287541;27;89962;-72
2023/04/08 09:23:13;;;;;;;4.68;3.33;;;22.50;65.50;;;;;;6293045;27;89018;-72
2023/04/08 09:26:17;;;;;;;3.15;2.85;;;22.50;64.70;;;;;;6285676;27;89177;-72
2023/04/08 09:29:23;;;;;;;3.40;3.10;;;22.50;64.70;;;;;;6298188;27;90098;-72
2023/04/08 09:32:43;;;;;;;3.60;2.97;;;22.50;64.70;;;;;;6300762;27;89038;-72
2023/04/08 09:35:47;;;;;;;3.15;2.85;;;22.50;64.70;;;;;;6290344;27;89058;-71
2023/04/08 09:38:49;;;;;;;3.15;2.85;;;22.50;64.70;;;;;;6286192;27;87769;-72
2023/04/08 09:41:52;;;;;;;3.63;3.10;;;22.50;64.70;;;;;;6296401;27;88340;-72
2023/04/08 09:44:55;;;;;;;3.40;3.10;;;22.50;64.70;;;;;;6294843;27;88940;-72
2023/04/08 09:48:03;;;;;;;3.22;2.92;;;22.50;64.70;;;;;;6301188;27;87877;-72
2023/04/08 09:51:07;;;;;;;3.30;2.88;;;22.50;64.70;;;;;;6300931;27;90029;-72
2023/04/08 09:54:14;;;;;;;3.33;3.03;;;22.50;64.70;;;;;;6298996;27;88965;-72
2023/04/08 09:57:22;;;;;;;3.25;2.88;;;22.50;64.70;;;;;;6298118;27;88952;-72
2023/04/08 10:00:30;;;;;;;3.58;3.28;;;22.50;64.70;;;;;;6296746;27;89190;-72
2023/04/08 10:03:36;;;;;;;2.85;2.65;;;22.50;64.70;;;;;;6285248;27;89008;-72
2023/04/08 10:06:42;;;;;;;3.22;2.92;;;22.50;64.80;;;;;;6295971;27;89379;-72
2023/04/08 10:09:44;;;;;;;2.97;2.75;;;22.50;64.70;;;;;;6283467;27;89052;-71
2023/04/08 10:12:47;;;;;;;3.30;3.00;;;22.60;64.80;;;;;;6290512;27;88366;-71
2023/04/08 10:15:49;;;;;;;3.28;2.97;;;22.50;64.80;;;;;;6300781;27;89117;-72
2023/04/08 10:18:54;;;;;;;3.03;2.70;;;22.60;64.90;;;;;;6284771;27;89115;-72
2023/04/08 10:21:57;;;;;;;5.25;3.70;;;22.50;64.80;;;;;;6298847;27;89963;-72
2023/04/08 10:25:28;;;;;;;3.20;2.90;;;22.50;64.80;;;;;;6297051;27;89056;-72
2023/04/08 10:28:30;;;;;;;2.92;2.63;;;22.50;64.80;;;;;;6295097;27;89019;-72
2023/04/08 10:31:40;;;;;;;3.95;3.42;;;22.60;64.90;;;;;;6296991;27;89048;-72
2023/04/08 10:34:53;;;;;;;3.70;3.00;;;22.60;64.90;;;;;;6283560;27;89051;-72
2023/04/08 10:37:57;;;;;;;3.10;2.78;;;22.60;64.90;;;;;;6282637;27;87930;-71
2023/04/08 10:40:59;;;;;;;3.10;2.80;;;22.60;64.90;;;;;;6285181;27;88161;-71
2023/04/08 10:44:03;;;;;;;3.13;2.88;;;22.60;64.90;;;;;;6298045;27;88256;-71
2023/04/08 10:47:06;;;;;;;3.38;3.08;;;22.60;64.90;;;;;;6290783;27;89024;-72
2023/04/08 10:50:13;;;;;;;3.20;2.90;;;22.60;64.90;;;;;;6283266;27;89065;-72
2023/04/08 10:53:17;;;;;;;3.22;2.92;;;22.60;64.90;;;;;;6304839;27;87957;-71
2023/04/08 10:56:20;;;;;;;2.70;2.50;;;22.60;64.90;;;;;;6292851;27;89041;-72
2023/04/08 10:59:30;;;;;;;3.28;2.92;;;22.50;64.90;;;;;;6299260;27;88981;-71
2023/04/08 11:02:33;;;;;;;3.30;3.00;;;22.60;65.00;;;;;;6299965;27;89073;-71
2023/04/08 11:05:36;;;;;;;3.00;2.70;;;22.50;64.90;;;;;;6286880;27;88992;-71
2023/04/08 11:08:40;;;;;;;2.80;2.60;;;22.60;64.90;;;;;;6293753;27;89011;-71
2023/04/08 11:11:43;;;;;;;3.05;2.80;;;22.60;64.90;;;;;;6283606;27;89079;-72
2023/04/08 11:14:45;;;;;;;2.80;2.60;;;22.60;64.90;;;;;;6288372;27;88306;-71
2023/04/08 11:17:48;;;;;;;3.10;2.85;;;22.60;64.90;;;;;;6296133;27;89121;-72
2023/04/08 11:20:51;;;;;;;3.00;2.80;;;22.60;64.90;;;;;;6293154;27;88506;-71
2023/04/08 11:23:55;;;;;;;2.75;2.55;;;22.60;65.00;;;;;;6293849;27;89992;-72
2023/04/08 11:26:58;;;;;;;3.42;2.78;;;22.60;65.00;;;;;;6294163;27;89020;-72
2023/04/08 11:30:00;;;;;;;3.10;2.80;;;22.50;65.10;;;;;;6283805;27;89233;-72
2023/04/08 11:33:02;;;;;;;3.58;2.90;;;22.60;65.10;;;;;;6282299;27;89063;-72
2023/04/08 11:36:05;;;;;;;2.70;2.50;;;22.60;65.10;;;;;;6298388;27;88990;-74
2023/04/08 11:39:10;;;;;;;4.43;3.60;;;22.60;65.30;;;;;;6302864;27;89234;-72
2023/04/08 11:42:26;;;;;;;4.90;3.17;;;22.60;66.60;;;;;;6297028;27;89228;-73
2023/04/08 11:45:29;;;;;;;5.95;3.25;;;22.60;67.50;;;;;;6304213;27;88418;-72
2023/04/08 11:48:32;;;;;;;4.40;2.88;;;22.60;67.60;;;;;;6291242;27;89539;-72
2023/04/08 11:51:36;;;;;;;4.00;2.55;;;22.60;67.40;;;;;;6293792;27;88198;-70
2023/04/08 11:54:42;;;;;;;4.63;2.72;;;22.70;67.50;;;;;;6292514;27;90154;-72
2023/04/08 11:57:45;;;;;;;5.90;3.10;;;22.70;67.40;;;;;;6288222;27;88707;-71
2023/04/08 12:00:48;;;;;;;5.28;2.90;;;22.70;67.30;;;;;;6285416;27;89215;-71
2023/04/08 12:03:57;;;;;;;5.38;3.17;;;22.70;67.30;;;;;;6303209;27;89457;-71
2023/04/08 12:06:59;;;;;;;8.02;3.45;;;22.70;67.30;;;;;;6290762;27;89075;-71
2023/04/08 12:10:03;;;;;;;5.57;3.72;;;22.70;67.40;;;;;;6287591;27;89365;-71
2023/04/08 12:13:05;;;;;;;5.40;3.53;;;22.70;67.70;;;;;;6282227;27;89330;-71
2023/04/08 12:16:07;;;;;;;6.82;3.45;;;22.70;70.40;;;;;;6296348;27;88527;-71
2023/04/08 12:19:09;;;;;;;8.20;3.78;;;22.70;69.60;;;;;;6301962;27;89002;-73
2023/04/08 12:22:11;;;;;;;9.38;3.90;;;22.80;69.60;;;;;;6291760;27;89032;-69
2023/04/08 12:25:15;;;;;;;8.27;3.85;;;22.80;69.50;;;;;;6302348;27;90020;-70
2023/04/08 12:28:17;;;;;;;8.15;3.88;;;22.80;69.40;;;;;;6281260;27;89588;-68
2023/04/08 12:31:19;;;;;;;6.85;3.67;;;22.80;69.20;;;;;;6281110;27;89389;-69
2023/04/08 12:34:21;;;;;;;7.43;3.83;;;22.80;69.10;;;;;;6285526;27;89012;-70
2023/04/08 12:37:23;;;;;;;7.70;3.60;;;22.80;68.90;;;;;;6289922;27;89078;-71
2023/04/08 12:40:27;;;;;;;7.18;3.70;;;22.80;69.20;;;;;;6291007;27;89312;-71
2023/04/08 12:43:31;;;;;;;7.35;3.65;;;22.80;69.50;;;;;;6304865;27;89379;-72
2023/04/08 12:46:33;;;;;;;9.35;4.15;;;22.90;69.60;;;;;;6305359;27;87221;-71
2023/04/08 12:49:35;;;;;;;9.80;4.55;;;22.90;69.80;;;;;;6281846;27;89308;-72
2023/04/08 12:52:37;;;;;;;12.10;5.15;;;22.90;69.60;;;;;;6289236;27;88446;-72
2023/04/08 12:55:41;;;;;;;10.40;4.75;;;22.80;69.30;;;;;;6297725;27;90051;-71
2023/04/08 12:58:43;;;;;;;9.80;4.70;;;22.80;69.30;;;;;;6296150;27;88084;-72
2023/04/08 13:01:45;;;;;;;8.45;4.32;;;22.90;69.10;;;;;;6290487;27;89342;-71
2023/04/08 13:04:48;;;;;;;10.45;4.57;;;22.80;68.90;;;;;;6299430;27;87965;-72
2023/04/08 13:07:50;;;;;;;10.15;4.80;;;22.90;69.00;;;;;;6299650;27;89103;-71
2023/04/08 13:10:54;;;;;;;8.82;4.32;;;22.90;68.80;;;;;;6280759;27;89078;-71
2023/04/08 13:13:56;;;;;;;8.30;3.90;;;22.80;68.80;;;;;;6281400;27;89245;-71
2023/04/08 13:16:58;;;;;;;7.90;4.25;;;22.90;68.80;;;;;;6282215;27;87232;-71
2023/04/08 13:20:00;;;;;;;6.55;4.00;;;22.90;68.70;;;;;;6297039;27;88824;-72
2023/04/08 13:23:03;;;;;;;8.60;4.25;;;22.90;68.70;;;;;;6284276;27;89101;-71
2023/04/08 13:26:06;;;;;;;9.73;4.55;;;22.90;68.70;;;;;;6280054;27;88839;-72
2023/04/08 13:29:08;;;;;;;10.18;4.60;;;22.90;68.70;;;;;;6296884;27;89112;-70
2023/04/08 13:32:10;;;;;;;8.60;4.38;;;22.90;68.60;;;;;;6296340;27;89062;-71
2023/04/08 13:35:12;;;;;;;8.48;4.35;;;23.00;68.80;;;;;;6292107;27;89590;-72
2023/04/08 13:38:14;;;;;;;6.93;3.97;;;23.00;68.60;;;;;;6303640;27;89272;-71
2023/04/08 13:41:17;;;;;;;6.78;3.80;;;23.00;68.60;;;;;;6291299;27;88830;-71
2023/04/08 13:44:19;;;;;;;7.97;4.15;;;22.90;68.50;;;;;;6301823;27;87927;-71
2023/04/08 13:47:21;;;;;;;8.25;4.40;;;23.00;68.60;;;;;;6300081;27;88458;-72
2023/04/08 13:50:23;;;;;;;8.27;4.50;;;23.00;68.60;;;;;;6290417;27;89380;-72
2023/04/08 13:53:26;;;;;;;7.65;4.53;;;23.00;68.60;;;;;;6285963;27;89070;-72
2023/04/08 13:56:29;;;;;;;7.03;4.30;;;23.00;68.60;;;;;;6304267;27;90484;-72
2023/04/08 13:59:31;;;;;;;7.93;4.30;;;23.00;68.60;;;;;;6305070;27;89381;-71
2023/04/08 14:02:33;;;;;;;7.60;4.25;;;23.00;68.50;;;;;;6289525;27;88966;-72
2023/04/08 14:05:35;;;;;;;6.55;4.13;;;23.00;68.60;;;;;;6282194;27;89032;-72
2023/04/08 14:08:37;;;;;;;6.68;4.10;;;23.00;68.50;;;;;;6278752;27;89313;-72
2023/04/08 14:11:40;;;;;;;6.82;4.72;;;23.00;68.50;;;;;;6285632;27;89071;-72
2023/04/08 14:14:42;;;;;;;5.82;4.45;;;23.00;68.50;;;;;;6286974;27;89187;-72
2023/04/08 14:17:44;;;;;;;7.80;5.03;;;23.00;68.40;;;;;;6295993;27;88260;-71
2023/04/08 14:20:46;;;;;;;5.90;4.45;;;23.00;68.40;;;;;;6289885;27;89388;-73
2023/04/08 14:23:48;;;;;;;5.95;4.20;;;23.00;68.60;;;;;;6307909;27;89076;-72
2023/04/08 14:26:52;;;;;;;5.53;4.32;;;23.00;68.40;;;;;;6307374;27;90123;-72
2023/04/08 14:29:54;;;;;;;5.05;4.03;;;23.00;68.40;;;;;;6292297;27;89359;-72
2023/04/08 14:32:57;;;;;;;6.97;5.00;;;23.00;68.40;;;;;;6308754;27;89045;-72
2023/04/08 14:36:00;;;;;;;6.47;4.20;;;23.10;68.50;;;;;;6294275;27;89192;-72
2023/04/08 14:39:02;;;;;;;5.13;4.32;;;23.00;68.40;;;;;;6303818;27;89448;-71
2023/04/08 14:42:05;;;;;;;7.35;4.90;;;23.00;68.50;;;;;;6303202;27;88476;-70
2023/04/08 14:45:09;;;;;;;5.72;4.57;;;23.00;71.90;;;;;;6287115;27;89052;-71
2023/04/08 14:48:11;;;;;;;7.82;4.78;;;23.00;73.40;;;;;;6307856;27;87242;-70
2023/04/08 14:51:13;;;;;;;5.32;4.72;;;23.00;73.00;;;;;;6304035;27;89434;-71
2023/04/08 14:54:15;;;;;;;5.43;4.93;;;23.00;71.70;;;;;;6288139;27;89024;-71
2023/04/08 14:57:19;;;;;;;7.20;4.78;;;23.00;71.20;;;;;;6284333;27;90387;-71
2023/04/08 15:00:21;;;;;;;6.53;4.93;;;23.00;70.10;;;;;;6296075;27;89243;-70
2023/04/08 15:03:23;;;;;;;5.97;4.70;;;23.00;70.10;;;;;;6297797;27;89102;-71
2023/04/08 15:06:25;;;;;;;6.63;5.35;;;23.00;70.00;;;;;;6291762;27;88055;-71
2023/04/08 15:09:27;;;;;;;8.20;5.20;;;23.00;70.10;;;;;;6298851;27;89143;-70
2023/04/08 15:12:31;;;;;;;5.82;5.22;;;23.00;70.30;;;;;;6294524;27;89081;-71
2023/04/08 15:15:33;;;;;;;7.82;5.25;;;23.00;70.10;;;;;;6292331;27;89074;-67
2023/04/08 15:18:36;;;;;;;8.40;5.20;;;23.00;70.00;;;;;;6297974;27;88298;-67
2023/04/08 15:21:38;;;;;;;7.13;5.70;;;23.10;70.20;;;;;;6298491;27;89114;-68
2023/04/08 15:24:41;;;;;;;8.48;5.63;;;23.10;70.10;;;;;;6300967;27;89020;-67
2023/04/08 15:27:44;;;;;;;8.80;5.80;;;23.10;70.10;;;;;;6292339;27;89018;-69
2023/04/08 15:30:46;;;;;;;7.55;5.95;;;23.10;71.10;;;;;;6292508;27;87933;-67
2023/04/08 15:33:48;;;;;;;8.60;6.00;;;23.10;70.60;;;;;;6297800;27;87920;-67
2023/04/08 15:36:50;;;;;;;7.93;5.78;;;23.10;70.60;;;;;;6282147;27;89045;-68
2023/04/08 15:39:53;;;;;;;7.18;6.13;;;23.10;70.50;;;;;;6289451;27;89084;-67
2023/04/08 15:42:57;;;;;;;8.00;6.25;;;23.10;71.00;;;;;;6292321;27;89201;-66
2023/04/08 15:45:59;;;;;;;11.02;7.00;;;23.10;70.80;;;;;;6286105;27;89098;-67
2023/04/08 15:49:01;;;;;;;13.07;7.72;;;23.10;75.60;;;;;;6294609;27;88409;-67
2023/04/08 15:52:03;;;;;;;10.77;6.85;;;23.10;79.60;;;;;;6286890;27;89164;-71